Time;durP1;ratioP1;P1;durP2;ratioP2;P2;SDS_P1;SDS_P2;PMS_P1;PMS_P2;Temp;Humidity;BMP_temperature;BMP_pressure;BME280_temperature;BME280_humidity;BME280_pressure;Samples;Min_cycle;Max_cycle;Signal;HPM_P1;HPM_P2
2023/06/19 00:01:11;;;;;;;7.73;7.00;;;18.00;1.00;;;;;;5092689;28;20896;-69
2023/06/19 00:03:37;;;;;;;7.80;7.10;;;17.90;1.00;;;;;;5090583;28;20467;-70
2023/06/19 00:06:03;;;;;;;7.77;7.03;;;17.90;1.00;;;;;;5093559;28;20604;-70
2023/06/19 00:08:29;;;;;;;7.73;7.07;;;17.90;1.00;;;;;;5094090;28;20486;-69
2023/06/19 00:10:55;;;;;;;9.80;8.03;;;17.90;1.00;;;;;;5093243;28;20495;-72
2023/06/19 00:13:21;;;;;;;8.63;7.73;;;17.80;1.00;;;;;;5092610;28;20202;-71
2023/06/19 00:19:14;;;;;;;8.47;7.67;;;17.80;1.00;;;;;;5094047;28;20398;-70
2023/06/19 00:21:42;;;;;;;10.63;7.80;;;17.80;1.00;;;;;;5092181;28;20541;-70
2023/06/19 00:24:10;;;;;;;7.30;6.30;;;17.70;1.00;;;;;;5092982;28;20443;-69
2023/06/19 00:26:36;;;;;;;7.90;7.20;;;17.70;1.00;;;;;;5093835;28;20431;-69
2023/06/19 00:29:02;;;;;;;8.17;7.47;;;17.60;1.00;;;;;;5093804;28;20400;-70
2023/06/19 00:31:29;;;;;;;8.13;7.40;;;17.60;1.00;;;;;;5092866;28;20730;-69
2023/06/19 00:33:57;;;;;;;8.00;7.30;;;17.60;1.00;;;;;;5093443;28;20518;-71
2023/06/19 00:39:29;;;;;;;9.27;8.37;;;17.50;1.00;;;;;;5092723;28;20495;-71
2023/06/19 00:42:00;;;;;;;7.20;6.70;;;17.50;1.00;;;;;;5092261;28;20499;-70
2023/06/19 00:48:04;;;;;;;8.47;7.67;;;17.50;1.00;;;;;;5093406;28;20460;-71
2023/06/19 00:50:31;;;;;;;8.00;7.30;;;17.50;1.00;;;;;;5090923;28;20501;-70
2023/06/19 00:52:59;;;;;;;8.23;7.37;;;17.50;1.00;;;;;;5092031;28;20931;-70
2023/06/19 00:55:31;;;;;;;8.20;7.40;;;17.50;1.00;;;;;;5093376;28;20483;-69
2023/06/19 00:57:57;;;;;;;7.13;6.40;;;17.50;1.00;;;;;;5092303;28;20404;-70
2023/06/19 01:00:26;;;;;;;8.70;7.90;;;17.50;1.00;;;;;;5091580;28;21232;-70
2023/06/19 01:02:52;;;;;;;7.93;7.10;;;17.50;1.00;;;;;;5075074;28;20455;-69
2023/06/19 01:05:56;;;;;;;8.83;7.93;;;17.60;1.00;;;;;;5074435;28;20565;-69
2023/06/19 01:12:23;;;;;;;;;;;;;;;;;;;;;
2023/06/19 01:14:56;;;;;;;7.60;6.73;;;17.60;1.00;;;;;;5091605;28;20965;-70
2023/06/19 01:17:55;;;;;;;8.07;7.37;;;17.60;1.00;;;;;;5074962;28;20423;-69
2023/06/19 01:20:42;;;;;;;8.27;7.47;;;17.60;1.00;;;;;;5085070;28;20453;-70
2023/06/19 01:27:05;;;;;;;;;;;;;;;;;;;;;
2023/06/19 01:29:31;;;;;;;7.73;7.03;;;17.60;1.00;;;;;;5043748;28;20415;-70
2023/06/19 01:32:27;;;;;;;7.50;6.80;;;17.70;1.00;;;;;;5092104;28;20490;-70
2023/06/19 01:35:07;;;;;;;;;;;;;;;;;;;;;
2023/06/19 01:37:59;;;;;;;7.83;7.23;;;17.70;1.00;;;;;;5072309;28;20434;-69
2023/06/19 01:40:27;;;;;;;8.33;7.53;;;17.70;1.00;;;;;;5071618;28;20412;-71
2023/06/19 01:43:04;;;;;;;;;;;;;;;;;;;;;
2023/06/19 01:46:12;;;;;;;8.83;7.93;;;17.70;1.00;;;;;;5072454;28;20396;-69
2023/06/19 01:49:02;;;;;;;7.37;6.63;;;17.70;1.00;;;;;;5052213;28;20423;-69
2023/06/19 01:51:43;;;;;;;7.90;7.20;;;17.70;1.00;;;;;;5071313;28;20428;-70
2023/06/19 02:01:35;;;;;;;;;;;;;;;;;;;;;
2023/06/19 02:07:37;;;;;;;8.47;7.77;;;17.50;99.90;;;;;;4991819;28;20942;-69
2023/06/19 02:12:56;;;;;;;7.53;6.83;;;17.40;99.90;;;;;;4994224;28;20446;-70
2023/06/19 02:15:46;;;;;;;8.97;7.30;;;17.40;99.90;;;;;;5000157;28;20442;-69
2023/06/19 02:18:12;;;;;;;7.73;6.93;;;17.40;99.90;;;;;;5065423;28;20426;-69
2023/06/19 02:20:40;;;;;;;7.70;7.00;;;17.40;99.90;;;;;;5095244;28;20491;-70
2023/06/19 02:23:06;;;;;;;10.20;7.93;;;17.40;99.90;;;;;;5077158;28;20490;-70
2023/06/19 02:25:50;;;;;;;6.80;6.20;;;17.40;99.90;;;;;;5078121;28;20407;-69
2023/06/19 02:28:17;;;;;;;9.33;7.80;;;17.40;1.00;;;;;;5077937;28;20173;-69
2023/06/19 02:30:45;;;;;;;6.63;6.03;;;17.40;1.00;;;;;;5093895;28;20421;-69
2023/06/19 02:34:25;;;;;;;8.33;7.53;;;17.50;1.00;;;;;;5095204;28;20489;-69
2023/06/19 02:37:10;;;;;;;7.70;6.70;;;17.60;1.00;;;;;;5072117;28;20842;-70
2023/06/19 02:40:10;;;;;;;8.47;7.70;;;17.60;1.00;;;;;;5095930;28;20465;-69
2023/06/19 02:42:39;;;;;;;8.90;7.80;;;17.60;1.00;;;;;;5089511;28;20519;-69
2023/06/19 02:45:09;;;;;;;6.87;6.23;;;17.70;1.00;;;;;;5095644;28;20412;-69
2023/06/19 02:47:46;;;;;;;8.63;7.73;;;17.70;99.90;;;;;;5094950;28;20431;-70
2023/06/19 02:50:12;;;;;;;8.03;7.00;;;17.70;99.90;;;;;;5094662;28;20407;-69
2023/06/19 02:52:38;;;;;;;8.60;7.80;;;17.80;99.90;;;;;;5095023;28;20420;-70
2023/06/19 02:55:04;;;;;;;6.90;5.70;;;17.90;99.90;;;;;;5095406;28;20791;-71
2023/06/19 02:57:30;;;;;;;9.10;6.43;;;18.00;99.90;;;;;;5095550;28;20403;-69
2023/06/19 02:59:56;;;;;;;8.20;7.40;;;18.10;99.90;;;;;;5093793;28;20435;-69
2023/06/19 03:02:22;;;;;;;8.70;7.90;;;18.20;99.90;;;;;;5076653;28;20494;-71
2023/06/19 03:04:49;;;;;;;7.37;6.67;;;18.20;99.90;;;;;;5077452;28;20193;-70
2023/06/19 03:07:45;;;;;;;7.23;6.63;;;18.20;99.90;;;;;;5095339;28;20431;-70
2023/06/19 03:12:55;;;;;;;6.93;6.33;;;18.20;99.90;;;;;;5095209;28;20457;-70
2023/06/19 03:15:21;;;;;;;7.53;6.90;;;18.20;99.90;;;;;;5094437;28;20447;-69
2023/06/19 03:17:47;;;;;;;12.00;7.30;;;18.30;99.90;;;;;;5076962;28;20260;-71
2023/06/19 03:20:22;;;;;;;8.10;7.17;;;18.30;99.90;;;;;;5076100;28;20416;-69
2023/06/19 03:22:48;;;;;;;6.80;6.20;;;18.30;99.90;;;;;;5075943;28;20454;-69
2023/06/19 03:25:14;;;;;;;6.63;6.03;;;18.30;99.90;;;;;;5094889;28;20491;-70
2023/06/19 03:27:40;;;;;;;8.93;8.03;;;18.30;99.90;;;;;;5093606;28;20435;-70
2023/06/19 03:30:07;;;;;;;11.63;7.90;;;18.40;99.90;;;;;;5092223;28;20472;-74
2023/06/19 03:32:33;;;;;;;9.83;6.90;;;18.40;99.90;;;;;;5094809;28;20406;-69
2023/06/19 03:35:05;;;;;;;8.23;7.40;;;18.40;99.90;;;;;;5094697;28;20431;-71
2023/06/19 03:37:32;;;;;;;8.20;7.50;;;18.50;99.90;;;;;;5094694;28;20181;-69
2023/06/19 03:43:44;;;;;;;6.30;5.70;;;18.50;99.90;;;;;;5074031;28;20471;-70
2023/06/19 03:46:13;;;;;;;8.07;7.30;;;18.50;1.00;;;;;;5073768;28;20403;-72
2023/06/19 03:48:42;;;;;;;7.73;7.00;;;18.40;1.00;;;;;;5074010;28;20402;-70
2023/06/19 03:51:08;;;;;;;7.87;7.00;;;18.40;1.00;;;;;;5055545;28;20945;-70
2023/06/19 03:53:34;;;;;;;8.73;7.53;;;18.40;1.00;;;;;;5074052;28;20424;-69
2023/06/19 03:56:00;;;;;;;8.80;7.60;;;18.40;1.00;;;;;;5079023;28;20438;-69
2023/06/19 03:58:26;;;;;;;11.87;8.40;;;18.40;1.00;;;;;;5094406;28;20947;-71
2023/06/19 04:04:28;;;;;;;;;;;;;;;;;;;;;
2023/06/19 04:06:55;;;;;;;8.23;7.40;;;18.40;1.00;;;;;;5093312;28;20410;-70
2023/06/19 04:09:20;;;;;;;8.37;7.53;;;18.40;1.00;;;;;;5092922;28;20519;-71
2023/06/19 04:12:07;;;;;;;8.33;7.60;;;18.50;1.00;;;;;;5092410;28;20533;-71
2023/06/19 04:14:33;;;;;;;8.73;7.90;;;18.40;1.00;;;;;;5075796;28;20302;-71
2023/06/19 04:17:05;;;;;;;8.27;7.47;;;18.50;1.00;;;;;;5094075;28;20453;-69
2023/06/19 04:19:31;;;;;;;8.13;7.43;;;18.60;1.00;;;;;;5093843;28;20908;-71
2023/06/19 04:21:57;;;;;;;8.27;7.50;;;18.60;1.00;;;;;;5092790;28;20416;-69
2023/06/19 04:24:25;;;;;;;9.20;8.30;;;18.60;1.00;;;;;;5074772;28;20462;-70
2023/06/19 04:26:54;;;;;;;11.67;8.20;;;18.60;1.00;;;;;;5093091;28;20227;-69
2023/06/19 04:29:20;;;;;;;8.07;7.07;;;18.60;1.00;;;;;;5075834;28;20423;-69
2023/06/19 04:31:49;;;;;;;8.43;7.63;;;18.60;1.00;;;;;;5092703;28;20404;-71
2023/06/19 04:37:20;;;;;;;9.17;8.30;;;18.80;1.00;;;;;;5093622;28;20558;-70
2023/06/19 04:42:47;;;;;;;8.17;7.47;;;18.80;1.00;;;;;;5093482;28;20986;-70
2023/06/19 04:45:13;;;;;;;9.47;7.50;;;18.90;1.00;;;;;;5075022;28;20415;-71
2023/06/19 04:47:39;;;;;;;11.13;7.10;;;19.00;1.00;;;;;;5093010;28;20414;-71
2023/06/19 04:53:28;;;;;;;7.67;6.97;;;19.10;1.00;;;;;;5092567;28;20446;-70
2023/06/19 04:55:56;;;;;;;8.47;7.17;;;19.10;1.00;;;;;;5093121;28;20418;-71
2023/06/19 04:58:22;;;;;;;11.03;8.33;;;19.10;1.00;;;;;;5093351;28;20400;-71
2023/06/19 05:04:34;;;;;;;14.60;8.77;;;19.10;1.00;;;;;;4989311;28;20456;-71
2023/06/19 05:07:21;;;;;;;8.60;7.80;;;19.10;1.00;;;;;;4975313;28;20411;-70
2023/06/19 05:10:19;;;;;;;8.03;7.00;;;19.10;1.00;;;;;;5009387;28;20426;-69
2023/06/19 05:12:45;;;;;;;8.57;7.70;;;19.10;1.00;;;;;;5010452;28;20461;-70
2023/06/19 05:15:57;;;;;;;8.33;7.53;;;19.10;1.00;;;;;;5061643;28;20415;-70
2023/06/19 05:18:58;;;;;;;8.70;7.80;;;19.10;1.00;;;;;;5091327;28;20973;-70
2023/06/19 05:21:36;;;;;;;8.77;7.87;;;19.10;1.00;;;;;;5092087;28;20483;-69
2023/06/19 05:24:15;;;;;;;;;;;;;;;;;;;;;
2023/06/19 05:36:41;;;;;;;14.50;7.73;;;19.20;1.00;;;;;;5092856;28;20460;-68
2023/06/19 05:39:42;;;;;;;13.73;7.93;;;19.20;1.00;;;;;;5092895;28;20545;-68
2023/06/19 05:42:27;;;;;;;8.10;7.30;;;19.20;1.00;;;;;;5090903;28;20756;-67
2023/06/19 05:44:53;;;;;;;8.33;7.57;;;19.20;1.00;;;;;;5075103;28;20522;-67
2023/06/19 05:47:20;;;;;;;7.60;7.00;;;19.20;1.00;;;;;;5063151;28;20516;-70
2023/06/19 05:49:46;;;;;;;9.10;7.73;;;19.20;1.00;;;;;;5093819;28;20173;-69
2023/06/19 05:52:21;;;;;;;9.13;7.80;;;19.30;1.00;;;;;;5095871;28;20430;-68
2023/06/19 05:55:30;;;;;;;10.00;8.10;;;19.30;1.00;;;;;;5096488;28;20495;-68
2023/06/19 05:57:56;;;;;;;8.10;7.07;;;19.30;1.00;;;;;;5076412;28;20404;-67
2023/06/19 06:00:57;;;;;;;8.83;7.13;;;19.30;1.00;;;;;;5074899;28;20798;-69
2023/06/19 06:03:27;;;;;;;12.07;7.50;;;19.30;1.00;;;;;;5076168;28;20452;-68
2023/06/19 06:05:53;;;;;;;9.80;8.80;;;19.30;1.00;;;;;;5076214;28;20403;-67
2023/06/19 06:08:22;;;;;;;10.30;7.70;;;19.40;1.00;;;;;;5076289;28;20401;-68
2023/06/19 06:10:58;;;;;;;8.77;8.00;;;19.50;1.00;;;;;;5090938;28;20458;-67
2023/06/19 06:13:24;;;;;;;8.70;7.80;;;19.50;1.00;;;;;;5078147;28;20484;-67
2023/06/19 06:15:53;;;;;;;9.10;7.53;;;19.60;1.00;;;;;;5096318;28;20399;-67
2023/06/19 06:18:19;;;;;;;9.23;7.63;;;19.50;1.00;;;;;;5095372;28;20408;-68
2023/06/19 06:20:45;;;;;;;10.27;8.03;;;19.60;1.00;;;;;;5095187;28;20395;-69
2023/06/19 06:23:11;;;;;;;8.50;7.80;;;19.60;1.00;;;;;;5096078;28;20465;-68
2023/06/19 06:26:02;;;;;;;7.50;6.80;;;19.60;1.00;;;;;;5076556;28;20791;-69
2023/06/19 06:28:28;;;;;;;8.13;7.37;;;19.70;1.00;;;;;;5089425;28;20503;-69
2023/06/19 06:31:02;;;;;;;9.30;8.13;;;19.70;1.00;;;;;;5083908;28;20768;-68
2023/06/19 06:33:46;;;;;;;8.47;7.67;;;19.80;1.00;;;;;;5095883;28;20451;-67
2023/06/19 06:36:17;;;;;;;8.47;7.30;;;19.80;1.00;;;;;;5094996;28;20392;-71
2023/06/19 06:38:43;;;;;;;7.53;6.83;;;19.80;1.00;;;;;;5095630;28;20456;-70
2023/06/19 06:41:09;;;;;;;9.10;8.30;;;19.80;1.00;;;;;;5094934;28;20399;-70
2023/06/19 06:43:35;;;;;;;8.80;8.07;;;19.80;1.00;;;;;;5094260;28;20205;-70
2023/06/19 06:46:01;;;;;;;9.27;7.87;;;19.80;1.00;;;;;;5094506;28;20427;-70
2023/06/19 06:48:33;;;;;;;9.87;8.40;;;19.80;1.00;;;;;;5095740;28;20453;-70
2023/06/19 06:51:10;;;;;;;9.53;7.20;;;19.90;1.00;;;;;;5076563;28;20564;-70
2023/06/19 06:53:36;;;;;;;8.33;7.50;;;19.90;1.00;;;;;;5095398;28;20935;-71
2023/06/19 06:56:03;;;;;;;8.03;7.30;;;20.00;1.00;;;;;;5094633;28;20414;-70
2023/06/19 06:58:29;;;;;;;9.03;8.20;;;20.00;1.00;;;;;;5093391;28;20460;-71
2023/06/19 07:00:55;;;;;;;13.63;6.97;;;20.00;1.00;;;;;;5094662;28;20495;-69
2023/06/19 07:03:22;;;;;;;10.10;9.07;;;20.10;1.00;;;;;;5069043;28;20455;-70
2023/06/19 07:05:48;;;;;;;9.27;8.37;;;20.10;1.00;;;;;;5076592;28;20435;-70
2023/06/19 07:08:14;;;;;;;8.67;7.77;;;20.10;1.00;;;;;;5094370;28;20478;-70
2023/06/19 07:10:40;;;;;;;9.03;8.13;;;20.20;1.00;;;;;;5093324;28;20428;-70
2023/06/19 07:13:06;;;;;;;8.30;7.27;;;20.20;1.00;;;;;;5092659;28;20982;-71
2023/06/19 07:16:04;;;;;;;8.23;7.43;;;20.20;1.00;;;;;;5094422;28;20404;-73
2023/06/19 07:18:30;;;;;;;10.43;9.43;;;20.30;1.00;;;;;;5095222;28;20165;-71
2023/06/19 07:20:56;;;;;;;9.20;8.10;;;20.40;1.00;;;;;;5094155;28;20904;-69
2023/06/19 07:23:22;;;;;;;8.37;7.57;;;20.50;1.00;;;;;;5094905;28;20608;-70
2023/06/19 07:25:48;;;;;;;9.90;8.90;;;20.60;1.00;;;;;;5095028;28;20162;-70
2023/06/19 07:28:15;;;;;;;9.50;8.57;;;20.60;99.90;;;;;;5093083;28;20438;-72
2023/06/19 07:30:40;;;;;;;10.13;8.73;;;20.60;99.90;;;;;;5075144;28;20427;-70
2023/06/19 07:33:06;;;;;;;9.60;8.80;;;20.70;99.90;;;;;;5076407;28;20489;-69
2023/06/19 07:35:32;;;;;;;10.10;9.10;;;20.70;99.90;;;;;;5094890;28;20249;-69
2023/06/19 07:37:58;;;;;;;11.40;8.37;;;20.70;99.90;;;;;;5076721;28;20173;-70
2023/06/19 07:40:24;;;;;;;9.83;9.00;;;20.70;99.90;;;;;;5093285;28;20243;-71
2023/06/19 07:42:49;;;;;;;8.97;8.13;;;20.80;99.90;;;;;;5094554;28;20193;-70
2023/06/19 07:45:15;;;;;;;9.07;8.20;;;20.80;1.00;;;;;;5094356;28;20169;-69
2023/06/19 07:47:41;;;;;;;9.10;8.20;;;20.70;1.00;;;;;;5093871;28;20169;-71
2023/06/19 07:50:07;;;;;;;9.83;8.60;;;20.70;1.00;;;;;;5093571;28;20162;-71
2023/06/19 07:52:33;;;;;;;10.70;8.70;;;20.70;1.00;;;;;;5094444;28;20188;-70
2023/06/19 07:55:00;;;;;;;9.83;8.80;;;20.60;1.00;;;;;;5093437;28;20471;-70
2023/06/19 07:57:26;;;;;;;10.43;9.53;;;20.50;1.00;;;;;;5093543;28;20431;-71
2023/06/19 07:59:54;;;;;;;10.70;9.70;;;20.50;1.00;;;;;;5075991;28;20404;-70
2023/06/19 08:02:32;;;;;;;10.33;9.40;;;20.40;1.00;;;;;;5075520;28;20455;-71
2023/06/19 08:04:58;;;;;;;11.23;10.13;;;20.30;1.00;;;;;;5072923;28;20425;-72
2023/06/19 08:07:26;;;;;;;11.70;10.07;;;20.30;1.00;;;;;;5073873;28;20450;-71
2023/06/19 08:10:18;;;;;;;10.10;9.20;;;20.30;1.00;;;;;;5072258;28;20182;-71
2023/06/19 08:12:45;;;;;;;10.07;8.80;;;20.20;1.00;;;;;;5083543;28;20449;-71
2023/06/19 08:15:13;;;;;;;12.03;10.93;;;20.20;1.00;;;;;;5094017;28;20965;-71
2023/06/19 08:17:40;;;;;;;11.17;10.10;;;20.30;1.00;;;;;;5074972;28;20435;-71
2023/06/19 08:20:07;;;;;;;11.47;10.37;;;20.30;1.00;;;;;;5093061;28;20411;-75
2023/06/19 08:22:33;;;;;;;10.73;9.63;;;20.20;1.00;;;;;;5092925;28;20439;-72
2023/06/19 08:24:59;;;;;;;11.10;10.10;;;20.20;1.00;;;;;;5092775;28;20443;-71
2023/06/19 08:27:25;;;;;;;11.93;10.87;;;20.10;1.00;;;;;;5093705;28;20408;-71
2023/06/19 08:29:51;;;;;;;12.93;11.67;;;20.00;1.00;;;;;;5075752;28;20165;-73
2023/06/19 08:32:17;;;;;;;12.23;11.03;;;19.90;1.00;;;;;;5093149;28;20438;-72
2023/06/19 08:34:43;;;;;;;12.70;11.50;;;19.80;1.00;;;;;;5075528;28;20189;-71
2023/06/19 08:37:09;;;;;;;12.40;11.30;;;19.60;1.00;;;;;;5093687;28;20418;-71
2023/06/19 08:39:39;;;;;;;11.57;10.53;;;19.40;1.00;;;;;;5070656;28;20519;-72
2023/06/19 08:42:08;;;;;;;12.60;11.30;;;19.40;1.00;;;;;;5072387;28;20908;-72
2023/06/19 08:48:00;;;;;;;12.23;10.17;;;19.40;1.00;;;;;;5082042;28;20510;-70
2023/06/19 08:50:26;;;;;;;12.63;11.10;;;19.50;1.00;;;;;;5092446;28;20500;-69
2023/06/19 08:52:52;;;;;;;11.87;10.73;;;19.60;1.00;;;;;;5093406;28;20772;-70
2023/06/19 08:55:18;;;;;;;12.27;10.60;;;19.70;1.00;;;;;;5093611;28;20424;-69
2023/06/19 08:57:44;;;;;;;11.63;10.43;;;19.80;1.00;;;;;;5093190;28;20161;-70
2023/06/19 09:00:10;;;;;;;13.00;11.73;;;19.90;1.00;;;;;;5091767;28;20170;-70
2023/06/19 09:02:38;;;;;;;12.60;11.40;;;20.00;1.00;;;;;;5092059;28;20205;-69
2023/06/19 09:05:21;;;;;;;13.37;12.07;;;20.10;1.00;;;;;;5093273;28;20404;-70
2023/06/19 09:08:00;;;;;;;12.93;11.63;;;20.10;1.00;;;;;;5093388;28;20438;-70
2023/06/19 09:10:26;;;;;;;11.87;10.67;;;20.20;1.00;;;;;;5092302;28;20404;-69
2023/06/19 09:13:03;;;;;;;12.23;10.97;;;20.40;1.00;;;;;;5093105;28;20396;-69
2023/06/19 09:15:37;;;;;;;12.63;11.33;;;20.60;1.00;;;;;;5092081;28;20465;-73
2023/06/19 09:18:05;;;;;;;13.40;11.43;;;20.80;1.00;;;;;;5081063;28;20432;-70
2023/06/19 09:20:35;;;;;;;13.03;11.60;;;20.90;1.00;;;;;;5091761;28;20923;-69
2023/06/19 09:23:02;;;;;;;11.27;10.00;;;20.90;1.00;;;;;;5092661;28;20562;-69
2023/06/19 09:25:28;;;;;;;12.33;11.23;;;20.90;1.00;;;;;;5093000;28;20384;-70
2023/06/19 09:27:54;;;;;;;12.40;11.20;;;20.90;1.00;;;;;;5093194;28;20418;-69
2023/06/19 09:30:21;;;;;;;12.20;10.93;;;21.00;1.00;;;;;;5091083;28;20620;-69
2023/06/19 09:32:47;;;;;;;12.20;11.00;;;21.00;1.00;;;;;;5092569;28;20408;-72
2023/06/19 09:35:16;;;;;;;12.20;11.00;;;21.10;1.00;;;;;;5092663;28;20431;-70
2023/06/19 09:37:42;;;;;;;12.90;11.50;;;21.20;1.00;;;;;;5091287;28;20514;-71
2023/06/19 09:40:11;;;;;;;12.50;11.30;;;21.40;1.00;;;;;;5091749;28;20514;-68
2023/06/19 09:42:39;;;;;;;15.23;12.27;;;21.60;1.00;;;;;;5092100;28;20465;-71
2023/06/19 09:45:09;;;;;;;13.30;12.10;;;22.10;1.00;;;;;;5092964;28;20419;-70
2023/06/19 09:47:44;;;;;;;14.43;12.80;;;22.50;1.00;;;;;;5074915;28;20461;-70
2023/06/19 09:50:13;;;;;;;13.13;11.83;;;22.90;1.00;;;;;;5091859;28;20464;-71
2023/06/19 09:52:42;;;;;;;12.50;11.33;;;23.30;1.00;;;;;;5068191;28;20425;-69
2023/06/19 09:55:14;;;;;;;11.50;10.60;;;23.50;1.00;;;;;;5072447;28;20447;-69
2023/06/19 09:57:42;;;;;;;12.63;11.33;;;23.80;1.00;;;;;;5054684;28;20901;-69
2023/06/19 10:00:15;;;;;;;14.03;12.57;;;24.20;1.00;;;;;;5053999;28;20768;-69
2023/06/19 10:02:43;;;;;;;12.90;11.70;;;24.60;1.00;;;;;;5072248;28;20452;-69
2023/06/19 10:05:12;;;;;;;11.57;10.53;;;24.80;1.00;;;;;;5072550;28;20396;-69
2023/06/19 10:07:40;;;;;;;11.67;10.53;;;25.10;1.00;;;;;;5088645;28;20461;-69
2023/06/19 10:10:09;;;;;;;11.50;10.40;;;25.40;1.00;;;;;;5091679;28;20400;-72
2023/06/19 10:12:43;;;;;;;12.67;11.37;;;25.80;1.00;;;;;;5092064;28;20407;-72
2023/06/19 10:15:23;;;;;;;11.20;10.20;;;26.40;1.00;;;;;;5092516;28;20411;-72
2023/06/19 10:17:59;;;;;;;11.70;10.70;;;26.80;99.90;;;;;;5074523;28;20923;-74
2023/06/19 10:20:25;;;;;;;16.67;11.03;;;26.80;99.90;;;;;;5091035;28;20395;-74
2023/06/19 10:22:58;;;;;;;12.90;11.60;;;26.50;99.90;;;;;;5091081;28;20804;-74
2023/06/19 10:25:29;;;;;;;12.27;11.17;;;26.40;99.90;;;;;;5092491;28;20162;-70
2023/06/19 10:27:55;;;;;;;12.53;11.43;;;26.20;99.90;;;;;;5092528;28;20399;-73
2023/06/19 10:30:21;;;;;;;12.07;10.93;;;26.10;99.90;;;;;;5072673;28;20411;-72
2023/06/19 10:32:47;;;;;;;12.30;11.30;;;25.90;99.90;;;;;;5095239;28;20172;-70
2023/06/19 10:35:16;;;;;;;12.30;11.20;;;25.80;99.90;;;;;;5094640;28;20435;-71
2023/06/19 10:37:44;;;;;;;13.50;12.30;;;25.50;99.90;;;;;;5096157;28;20399;-73
2023/06/19 10:40:12;;;;;;;12.10;10.90;;;25.50;99.90;;;;;;5095085;28;20434;-71
2023/06/19 10:42:38;;;;;;;13.53;12.33;;;25.50;99.90;;;;;;5095640;28;20538;-71
2023/06/19 10:45:06;;;;;;;13.00;11.90;;;25.40;99.90;;;;;;5095891;28;20400;-71
2023/06/19 10:47:35;;;;;;;13.60;12.50;;;25.30;99.90;;;;;;5095807;28;20506;-73
2023/06/19 10:50:02;;;;;;;13.07;11.80;;;25.30;99.90;;;;;;5093304;28;20488;-70
2023/06/19 10:52:31;;;;;;;14.50;12.43;;;25.30;99.90;;;;;;5094882;28;20408;-74
2023/06/19 10:54:57;;;;;;;12.10;11.03;;;25.60;99.90;;;;;;5077639;28;20435;-73
2023/06/19 10:57:27;;;;;;;13.57;12.43;;;26.00;99.90;;;;;;5094933;28;20399;-71
2023/06/19 10:59:53;;;;;;;15.17;12.90;;;26.40;99.90;;;;;;5095289;28;20407;-75
2023/06/19 11:02:19;;;;;;;12.60;11.30;;;26.60;99.90;;;;;;5094896;28;20395;-71
2023/06/19 11:04:45;;;;;;;13.73;12.53;;;26.70;99.90;;;;;;5094590;28;20202;-73
2023/06/19 11:07:10;;;;;;;13.00;11.90;;;26.80;99.90;;;;;;5095367;28;20526;-71
2023/06/19 11:09:36;;;;;;;13.80;12.70;;;27.00;99.90;;;;;;5076760;28;20515;-71
2023/06/19 11:12:02;;;;;;;13.83;12.63;;;27.00;99.90;;;;;;5094503;28;20170;-71
2023/06/19 11:14:30;;;;;;;14.37;13.07;;;27.00;99.90;;;;;;5095228;28;20192;-70
2023/06/19 11:16:56;;;;;;;13.87;12.47;;;26.80;99.90;;;;;;5094175;28;20249;-71
2023/06/19 11:19:25;;;;;;;14.20;12.80;;;26.70;99.90;;;;;;5074820;28;20522;-71
2023/06/19 11:21:52;;;;;;;14.43;13.03;;;26.60;99.90;;;;;;5088894;28;20205;-72
2023/06/19 11:24:20;;;;;;;12.63;11.37;;;26.60;99.90;;;;;;5094155;28;20471;-70
2023/06/19 11:26:51;;;;;;;16.77;11.80;;;27.10;99.90;;;;;;5094472;28;20403;-71
2023/06/19 11:29:25;;;;;;;14.97;11.70;;;27.90;99.90;;;;;;5094914;28;20475;-71
2023/06/19 11:32:04;;;;;;;13.40;12.10;;;28.60;99.90;;;;;;5093358;28;20433;-71
2023/06/19 11:34:36;;;;;;;13.27;11.97;;;29.10;99.90;;;;;;5094698;28;20431;-71
2023/06/19 11:37:17;;;;;;;12.10;11.10;;;29.70;99.90;;;;;;5094699;28;20803;-74
2023/06/19 11:39:44;;;;;;;13.07;12.03;;;30.10;99.90;;;;;;5094896;28;20442;-71
2023/06/19 11:42:10;;;;;;;15.60;12.03;;;30.70;99.90;;;;;;5093835;28;20764;-74
2023/06/19 11:44:51;;;;;;;12.73;11.57;;;31.00;99.90;;;;;;5093339;28;20414;-74
2023/06/19 11:47:18;;;;;;;12.37;10.77;;;31.10;99.90;;;;;;5093895;28;20181;-75
2023/06/19 11:49:48;;;;;;;13.33;10.80;;;31.10;99.90;;;;;;5076665;28;20400;-72
2023/06/19 11:52:13;;;;;;;12.57;11.57;;;31.10;99.90;;;;;;5093898;28;20827;-71
2023/06/19 11:54:39;;;;;;;11.17;10.17;;;31.30;99.90;;;;;;5076168;28;20443;-70
2023/06/19 11:57:05;;;;;;;11.40;10.50;;;31.40;99.90;;;;;;5094151;28;20201;-74
2023/06/19 11:59:31;;;;;;;11.57;10.53;;;31.70;99.90;;;;;;5093434;28;20567;-71
2023/06/19 12:01:58;;;;;;;11.80;10.90;;;31.90;99.90;;;;;;5091136;28;20462;-74
2023/06/19 12:04:24;;;;;;;10.60;9.80;;;32.10;99.90;;;;;;5093602;28;20246;-75
2023/06/19 12:06:50;;;;;;;11.03;10.13;;;32.40;99.90;;;;;;5094380;28;20392;-75
2023/06/19 12:09:16;;;;;;;10.33;9.53;;;32.60;99.90;;;;;;5094083;28;20395;-71
2023/06/19 12:11:41;;;;;;;10.80;9.90;;;32.90;99.90;;;;;;5075118;28;20177;-73
2023/06/19 12:14:07;;;;;;;12.17;9.70;;;33.00;99.90;;;;;;5075055;28;20193;-74
2023/06/19 12:16:33;;;;;;;10.83;9.87;;;32.40;99.90;;;;;;5075978;28;20532;-73
2023/06/19 12:18:58;;;;;;;11.20;10.20;;;31.30;99.90;;;;;;5094123;28;20158;-72
2023/06/19 12:21:24;;;;;;;11.00;10.00;;;30.50;99.90;;;;;;5093061;28;20209;-70
2023/06/19 12:23:50;;;;;;;11.07;10.03;;;30.50;99.90;;;;;;5093199;28;20193;-73
2023/06/19 12:26:15;;;;;;;11.90;9.67;;;31.10;99.90;;;;;;5094018;28;20245;-73
2023/06/19 12:28:41;;;;;;;10.23;9.33;;;31.50;99.90;;;;;;5093159;28;20162;-71
2023/06/19 12:31:07;;;;;;;11.57;10.60;;;31.90;99.90;;;;;;5075318;28;20169;-73
2023/06/19 12:33:32;;;;;;;11.13;10.03;;;32.20;99.90;;;;;;5075996;28;20548;-71
2023/06/19 12:35:58;;;;;;;11.23;9.87;;;32.00;99.90;;;;;;5093802;28;20166;-71
2023/06/19 12:38:24;;;;;;;11.13;10.13;;;32.00;99.90;;;;;;5075217;28;20538;-73
2023/06/19 12:40:50;;;;;;;11.10;10.00;;;32.10;99.90;;;;;;5092225;28;20392;-71
2023/06/19 12:43:16;;;;;;;13.30;8.83;;;31.70;99.90;;;;;;5092712;28;20209;-74
2023/06/19 12:45:42;;;;;;;10.10;9.30;;;31.70;99.90;;;;;;5093592;28;20173;-73
2023/06/19 12:48:11;;;;;;;9.63;8.83;;;31.70;99.90;;;;;;5093604;28;20176;-71
2023/06/19 12:50:37;;;;;;;10.50;9.50;;;31.50;99.90;;;;;;5092558;28;20169;-71
2023/06/19 12:53:02;;;;;;;10.53;9.63;;;31.40;99.90;;;;;;5093405;28;20478;-72
2023/06/19 12:55:28;;;;;;;9.17;8.27;;;31.20;99.90;;;;;;5092272;28;20223;-73
2023/06/19 12:57:54;;;;;;;9.60;8.90;;;30.80;99.90;;;;;;5092507;28;20173;-74
2023/06/19 13:00:19;;;;;;;9.73;8.93;;;30.50;99.90;;;;;;5091221;28;20185;-72
2023/06/19 13:02:46;;;;;;;10.03;9.13;;;30.50;99.90;;;;;;5093178;28;20190;-72
2023/06/19 13:05:12;;;;;;;10.40;9.60;;;30.40;99.90;;;;;;5093309;28;20248;-72
2023/06/19 13:07:38;;;;;;;10.73;9.20;;;30.90;99.90;;;;;;5075035;28;20434;-74
2023/06/19 13:10:05;;;;;;;9.80;9.10;;;31.40;99.90;;;;;;5074718;28;20169;-75
2023/06/19 13:12:32;;;;;;;11.80;10.70;;;32.10;99.90;;;;;;5091991;28;20173;-74
2023/06/19 13:14:58;;;;;;;12.17;10.23;;;32.90;99.90;;;;;;5093248;28;20447;-74
2023/06/19 13:17:24;;;;;;;11.63;10.73;;;33.40;99.90;;;;;;5093124;28;20962;-73
2023/06/19 13:19:50;;;;;;;9.63;8.80;;;33.60;99.90;;;;;;5092540;28;20161;-72
2023/06/19 13:22:15;;;;;;;10.80;9.90;;;34.10;99.90;;;;;;5092056;28;20910;-74
2023/06/19 13:24:41;;;;;;;10.70;9.70;;;33.70;99.90;;;;;;5092243;28;20189;-72
2023/06/19 13:27:07;;;;;;;11.10;10.20;;;33.00;99.90;;;;;;5093060;28;20173;-74
2023/06/19 13:29:33;;;;;;;10.87;9.97;;;32.20;99.90;;;;;;5093098;28;20162;-73
2023/06/19 13:31:59;;;;;;;10.57;9.67;;;31.30;99.90;;;;;;5092045;28;20243;-75
2023/06/19 13:34:25;;;;;;;11.70;10.70;;;30.60;99.90;;;;;;5092941;28;20514;-73
2023/06/19 13:36:51;;;;;;;11.40;10.50;;;30.20;99.90;;;;;;5092687;28;20569;-75
2023/06/19 13:39:20;;;;;;;11.60;10.70;;;29.90;99.90;;;;;;5072775;28;20484;-73
2023/06/19 13:41:47;;;;;;;12.60;11.50;;;29.70;99.90;;;;;;5083113;28;20220;-73
2023/06/19 13:44:13;;;;;;;13.27;12.27;;;29.50;99.90;;;;;;5072674;28;20452;-73
2023/06/19 13:46:39;;;;;;;14.57;13.07;;;29.30;99.90;;;;;;5072706;28;20393;-74
2023/06/19 13:49:05;;;;;;;12.33;11.17;;;29.30;99.90;;;;;;5072566;28;20946;-74
2023/06/19 13:51:31;;;;;;;16.00;14.70;;;29.30;99.90;;;;;;5071939;28;20241;-73
2023/06/19 13:53:57;;;;;;;16.27;14.53;;;29.10;99.90;;;;;;5089270;28;20880;-72
2023/06/19 13:56:25;;;;;;;24.97;22.87;;;29.10;99.90;;;;;;5092272;28;20662;-72
2023/06/19 13:58:51;;;;;;;11.57;10.50;;;29.20;99.90;;;;;;5092756;28;20399;-71
2023/06/19 14:01:16;;;;;;;11.43;9.77;;;29.20;99.90;;;;;;5091317;28;20400;-74
2023/06/19 14:03:43;;;;;;;13.23;11.83;;;29.30;99.90;;;;;;5092044;28;20644;-71
2023/06/19 14:06:08;;;;;;;9.93;9.00;;;29.50;99.90;;;;;;5093065;28;20169;-71
2023/06/19 14:08:34;;;;;;;8.33;7.60;;;29.50;99.90;;;;;;5096477;28;20399;-73
2023/06/19 14:11:00;;;;;;;10.13;9.20;;;29.30;99.90;;;;;;5076986;28;20214;-73
2023/06/19 14:13:25;;;;;;;9.57;8.57;;;29.30;99.90;;;;;;5096435;28;20182;-73